Time;durP1;ratioP1;P1;durP2;ratioP2;P2;SDS_P1;SDS_P2;PMS_P1;PMS_P2;Temp;Humidity;BMP_temperature;BMP_pressure;BME280_temperature;BME280_humidity;BME280_pressure;Samples;Min_cycle;Max_cycle;Signal;HPM_P1;HPM_P2
2021/04/03 00:01:09;;;;;;;0.20;0.20;;;;;;;;;;5075977;28;20528;-68
2021/04/03 00:03:34;;;;;;;0.10;0.10;;;;;;;;;;5075341;28;20274;-67
2021/04/03 00:05:59;;;;;;;0.15;0.15;;;;;;;;;;5076274;28;20262;-68
2021/04/03 00:08:25;;;;;;;0.10;0.10;;;;;;;;;;5058521;28;20016;-67
2021/04/03 00:10:51;;;;;;;0.20;0.20;;;;;;;;;;5075343;28;20615;-67
2021/04/03 00:13:17;;;;;;;0.20;0.20;;;;;;;;;;5058648;28;20023;-67
2021/04/03 00:15:42;;;;;;;0.20;0.20;;;;;;;;;;5075129;28;20367;-68
2021/04/03 00:18:08;;;;;;;0.10;0.10;;;;;;;;;;5093721;28;20415;-67
2021/04/03 00:20:36;;;;;;;0.20;0.20;;;;;;;;;;5074934;28;20536;-67
2021/04/03 00:23:02;;;;;;;0.20;0.20;;;;;;;;;;5075201;28;20012;-67
2021/04/03 00:25:28;;;;;;;0.10;0.10;;;;;;;;;;5075264;28;20028;-67
2021/04/03 00:27:53;;;;;;;0.20;0.20;;;;;;;;;;5075330;28;20456;-68
2021/04/03 00:30:18;;;;;;;0.10;0.10;;;;;;;;;;5082245;28;20131;-67
2021/04/03 00:32:53;;;;;;;0.20;0.20;;;;;;;;;;5095251;28;20707;-68
2021/04/03 00:35:19;;;;;;;0.20;0.20;;;;;;;;;;5097620;28;20027;-67
2021/04/03 00:37:45;;;;;;;0.10;0.10;;;;;;;;;;5099190;28;20020;-68
2021/04/03 00:40:14;;;;;;;0.10;0.10;;;;;;;;;;5082266;28;20126;-67
2021/04/03 00:42:40;;;;;;;0.20;0.20;;;;;;;;;;5098981;28;20061;-66
2021/04/03 00:45:05;;;;;;;0.20;0.20;;;;;;;;;;5081838;28;20791;-66
2021/04/03 00:47:30;;;;;;;0.20;0.20;;;;;;;;;;5081418;28;20024;-66
2021/04/03 00:49:56;;;;;;;0.15;0.15;;;;;;;;;;5098714;28;20031;-66
2021/04/03 00:52:21;;;;;;;0.10;0.10;;;;;;;;;;5098894;28;20032;-64
2021/04/03 00:54:46;;;;;;;0.10;0.10;;;;;;;;;;5098735;28;20257;-66
2021/04/03 00:57:11;;;;;;;0.10;0.10;;;;;;;;;;5099136;28;20653;-66
2021/04/03 00:59:36;;;;;;;0.20;0.20;;;;;;;;;;5098613;28;20269;-66
2021/04/03 01:02:02;;;;;;;0.20;0.20;;;;;;;;;;5098756;28;20031;-65
2021/04/03 01:04:27;;;;;;;0.20;0.20;;;;;;;;;;5096381;28;20269;-65
2021/04/03 01:06:52;;;;;;;0.20;0.20;;;;;;;;;;5098009;28;20168;-65
2021/04/03 01:09:17;;;;;;;0.20;0.20;;;;;;;;;;5097888;28;20335;-65
2021/04/03 01:11:57;;;;;;;0.20;0.20;;;;;;;;;;5097981;28;20262;-65
2021/04/03 01:14:52;;;;;;;0.10;0.10;;;;;;;;;;5097385;28;20300;-65
2021/04/03 01:17:21;;;;;;;0.10;0.10;;;;;;;;;;5087532;28;20495;-65
2021/04/03 01:20:01;;;;;;;0.20;0.20;;;;;;;;;;5098525;28;20777;-65
2021/04/03 01:22:33;;;;;;;0.20;0.20;;;;;;;;;;5114665;28;20472;-65
2021/04/03 01:25:07;;;;;;;0.10;0.10;;;;;;;;;;5113995;28;20016;-65
2021/04/03 01:27:32;;;;;;;0.10;0.10;;;;;;;;;;5116226;28;20049;-65
2021/04/03 01:30:03;;;;;;;0.20;0.20;;;;;;;;;;5091731;28;20116;-65
2021/04/03 01:32:39;;;;;;;0.20;0.20;;;;;;;;;;5076825;28;20020;-65
2021/04/03 01:35:04;;;;;;;;;;;;;;;;;;5078198;28;20035;-66
2021/04/03 01:37:30;;;;;;;0.10;0.10;;;;;;;;;;5077493;28;19908;-65
2021/04/03 01:39:55;;;;;;;0.10;0.10;;;;;;;;;;5077959;28;20480;-66
2021/04/03 01:42:22;;;;;;;0.10;0.10;;;;;;;;;;5077547;28;20016;-64
2021/04/03 01:44:51;;;;;;;0.10;0.10;;;;;;;;;;5059515;28;20072;-64
2021/04/03 01:47:23;;;;;;;0.20;0.20;;;;;;;;;;5058262;28;20110;-66
2021/04/03 01:49:51;;;;;;;0.20;0.20;;;;;;;;;;5094959;28;20019;-65
2021/04/03 01:52:17;;;;;;;0.10;0.10;;;;;;;;;;5076393;28;20035;-65
2021/04/03 01:54:42;;;;;;;0.10;0.10;;;;;;;;;;5058774;28;20055;-65
2021/04/03 01:57:07;;;;;;;0.20;0.20;;;;;;;;;;5060562;28;20100;-66
2021/04/03 01:59:33;;;;;;;0.20;0.20;;;;;;;;;;5077337;28;20640;-66
2021/04/03 02:01:58;;;;;;;0.10;0.10;;;;;;;;;;5076903;28;20273;-66
2021/04/03 02:04:23;;;;;;;0.10;0.10;;;;;;;;;;5076724;28;20282;-66
2021/04/03 02:06:48;;;;;;;0.10;0.10;;;;;;;;;;5077319;28;21625;-66
2021/04/03 02:09:14;;;;;;;0.10;0.10;;;;;;;;;;5060161;28;20032;-66
2021/04/03 02:11:44;;;;;;;0.20;0.20;;;;;;;;;;5075852;28;20264;-67
2021/04/03 02:14:09;;;;;;;0.10;0.10;;;;;;;;;;5094998;28;20027;-67
2021/04/03 02:16:37;;;;;;;0.10;0.10;;;;;;;;;;5077090;28;20020;-66
2021/04/03 02:19:06;;;;;;;0.10;0.10;;;;;;;;;;5076701;28;20028;-66
2021/04/03 02:21:35;;;;;;;0.10;0.10;;;;;;;;;;5094822;28;20069;-66
2021/04/03 02:24:00;;;;;;;0.10;0.10;;;;;;;;;;5075235;28;20020;-65
2021/04/03 02:26:27;;;;;;;0.10;0.10;;;;;;;;;;5076262;28;20031;-66
2021/04/03 02:28:53;;;;;;;0.10;0.10;;;;;;;;;;5075952;28;20103;-66
2021/04/03 02:31:18;;;;;;;0.10;0.10;;;;;;;;;;5075031;28;20449;-66
2021/04/03 02:33:43;;;;;;;0.10;0.10;;;;;;;;;;5096292;28;20323;-66
2021/04/03 02:36:09;;;;;;;0.10;0.10;;;;;;;;;;5114409;28;20478;-66
2021/04/03 02:38:34;;;;;;;0.10;0.10;;;;;;;;;;5096082;28;20061;-66
2021/04/03 02:40:59;;;;;;;0.10;0.10;;;;;;;;;;5079399;28;20024;-66
2021/04/03 02:43:27;;;;;;;0.10;0.10;;;;;;;;;;5078728;28;20023;-66
2021/04/03 02:46:00;;;;;;;0.10;0.10;;;;;;;;;;5112764;28;20012;-66
2021/04/03 02:48:26;;;;;;;0.10;0.10;;;;;;;;;;5076761;28;20117;-66
2021/04/03 02:50:51;;;;;;;0.10;0.10;;;;;;;;;;5079026;28;20076;-66
2021/04/03 02:53:18;;;;;;;0.13;0.13;;;;;;;;;;5095844;28;20099;-66
2021/04/03 02:55:43;;;;;;;0.20;0.20;;;;;;;;;;5079607;28;20054;-66
2021/04/03 02:58:09;;;;;;;0.20;0.20;;;;;;;;;;5111040;28;20110;-66
2021/04/03 03:00:34;;;;;;;0.20;0.20;;;;;;;;;;5079235;28;20027;-66
2021/04/03 03:02:59;;;;;;;0.10;0.10;;;;;;;;;;5095392;28;20405;-66
2021/04/03 03:05:24;;;;;;;0.10;0.10;;;;;;;;;;5095387;28;20437;-66
2021/04/03 03:07:50;;;;;;;0.20;0.20;;;;;;;;;;5113048;28;20266;-66
2021/04/03 03:10:15;;;;;;;0.17;0.17;;;;;;;;;;5095539;28;20073;-66
2021/04/03 03:12:42;;;;;;;0.15;0.15;;;;;;;;;;5096309;28;20425;-66
2021/04/03 03:15:07;;;;;;;0.20;0.20;;;;;;;;;;5077568;28;20047;-66
2021/04/03 03:17:32;;;;;;;0.20;0.20;;;;;;;;;;5095317;28;20062;-66
2021/04/03 03:19:59;;;;;;;0.20;0.20;;;;;;;;;;5095578;28;20095;-66
2021/04/03 03:22:24;;;;;;;0.20;0.20;;;;;;;;;;5095810;28;20027;-67
2021/04/03 03:24:51;;;;;;;0.20;0.20;;;;;;;;;;5078439;28;20031;-66
2021/04/03 03:27:16;;;;;;;0.20;0.20;;;;;;;;;;5095662;28;20679;-66
2021/04/03 03:29:42;;;;;;;0.20;0.20;;;;;;;;;;5076976;28;20110;-68
2021/04/03 03:32:07;;;;;;;0.20;0.20;;;;;;;;;;5080014;28;20272;-69
2021/04/03 03:34:32;;;;;;;0.10;0.10;;;;;;;;;;5061307;28;20053;-68
2021/04/03 03:36:58;;;;;;;0.20;0.20;;;;;;;;;;5075496;28;20028;-67
2021/04/03 03:39:23;;;;;;;0.20;0.20;;;;;;;;;;5075627;28;20266;-67
2021/04/03 03:41:48;;;;;;;0.13;0.13;;;;;;;;;;5075205;28;20019;-67
2021/04/03 03:44:13;;;;;;;0.20;0.20;;;;;;;;;;5058270;28;20034;-67
2021/04/03 03:46:38;;;;;;;0.20;0.20;;;;;;;;;;5074986;28;20361;-67
2021/04/03 03:49:04;;;;;;;0.20;0.20;;;;;;;;;;5058434;28;20312;-67
2021/04/03 03:51:29;;;;;;;0.20;0.20;;;;;;;;;;5074904;28;20263;-66
2021/04/03 03:53:54;;;;;;;0.20;0.20;;;;;;;;;;5092398;28;20586;-66
2021/04/03 03:56:20;;;;;;;0.20;0.20;;;;;;;;;;5092937;28;20065;-66
2021/04/03 03:58:45;;;;;;;0.10;0.10;;;;;;;;;;5057945;28;20020;-66
2021/04/03 04:01:10;;;;;;;0.20;0.20;;;;;;;;;;5074449;28;20672;-65
2021/04/03 04:03:36;;;;;;;0.20;0.20;;;;;;;;;;5074356;28;20031;-66
2021/04/03 04:06:01;;;;;;;0.10;0.10;;;;;;;;;;5057593;28;20020;-66
2021/04/03 04:08:26;;;;;;;0.20;0.20;;;;;;;;;;5092313;28;20095;-66
2021/04/03 04:10:52;;;;;;;0.20;0.20;;;;;;;;;;5074262;28;20027;-66
2021/04/03 04:13:17;;;;;;;0.20;0.20;;;;;;;;;;5057682;28;20024;-66
2021/04/03 04:15:42;;;;;;;0.20;0.20;;;;;;;;;;5074211;28;20031;-66
2021/04/03 04:18:08;;;;;;;0.10;0.10;;;;;;;;;;5074491;28;20419;-66
2021/04/03 04:20:33;;;;;;;0.20;0.20;;;;;;;;;;5074505;28;20077;-66
2021/04/03 04:22:59;;;;;;;0.20;0.20;;;;;;;;;;5057206;28;20381;-66
2021/04/03 04:25:24;;;;;;;0.20;0.20;;;;;;;;;;5074252;28;20016;-66
2021/04/03 04:27:49;;;;;;;0.17;0.17;;;;;;;;;;5057317;28;20062;-66
2021/04/03 04:30:15;;;;;;;0.20;0.20;;;;;;;;;;5093705;28;20105;-66
2021/04/03 04:32:40;;;;;;;0.20;0.20;;;;;;;;;;5083840;28;20019;-66
2021/04/03 04:35:06;;;;;;;0.20;0.20;;;;;;;;;;5082310;28;20062;-66
2021/04/03 04:37:31;;;;;;;0.20;0.20;;;;;;;;;;5084482;28;20031;-66
2021/04/03 04:39:57;;;;;;;0.20;0.20;;;;;;;;;;5086189;28;20020;-66
2021/04/03 04:42:22;;;;;;;0.20;0.20;;;;;;;;;;5067772;28;20053;-66
2021/04/03 04:44:47;;;;;;;0.17;0.17;;;;;;;;;;5063176;28;20020;-66
2021/04/03 04:47:12;;;;;;;0.20;0.20;;;;;;;;;;5086088;28;20024;-66
2021/04/03 04:49:37;;;;;;;0.20;0.20;;;;;;;;;;5086900;28;20372;-67
2021/04/03 04:52:03;;;;;;;0.20;0.20;;;;;;;;;;5102825;28;20269;-67
2021/04/03 04:54:28;;;;;;;0.10;0.10;;;;;;;;;;5085869;28;20047;-67
2021/04/03 04:56:53;;;;;;;0.20;0.20;;;;;;;;;;5067409;28;20023;-67
2021/04/03 04:59:18;;;;;;;0.15;0.15;;;;;;;;;;5082183;28;20740;-67
2021/04/03 05:01:43;;;;;;;0.10;0.10;;;;;;;;;;5083607;28;20527;-67
2021/04/03 05:04:09;;;;;;;0.10;0.10;;;;;;;;;;5066562;28;20561;-67
2021/04/03 05:06:35;;;;;;;0.10;0.10;;;;;;;;;;5081411;28;20353;-67
2021/04/03 05:09:00;;;;;;;0.20;0.20;;;;;;;;;;5063864;28;20269;-66
2021/04/03 05:11:26;;;;;;;0.20;0.20;;;;;;;;;;5080705;28;20527;-66
2021/04/03 05:13:51;;;;;;;0.13;0.13;;;;;;;;;;5065763;28;20102;-66
2021/04/03 05:16:16;;;;;;;0.17;0.17;;;;;;;;;;5066812;28;20319;-66
2021/04/03 05:18:41;;;;;;;0.20;0.20;;;;;;;;;;5062651;28;20724;-66
2021/04/03 05:21:06;;;;;;;0.20;0.20;;;;;;;;;;5081646;28;20016;-67
2021/04/03 05:23:32;;;;;;;0.20;0.20;;;;;;;;;;5082442;28;20032;-66
2021/04/03 05:25:57;;;;;;;0.20;0.20;;;;;;;;;;5087073;28;20325;-66
2021/04/03 05:28:22;;;;;;;0.20;0.20;;;;;;;;;;5083661;28;20274;-66
2021/04/03 05:30:47;;;;;;;0.10;0.10;;;;;;;;;;5090310;28;20093;-66
2021/04/03 05:33:12;;;;;;;0.10;0.10;;;;;;;;;;5096450;28;20016;-66
2021/04/03 05:35:38;;;;;;;0.20;0.20;;;;;;;;;;5079799;28;20357;-66
2021/04/03 05:38:03;;;;;;;0.13;0.13;;;;;;;;;;5096621;28;20753;-67
2021/04/03 05:40:28;;;;;;;0.17;0.17;;;;;;;;;;5096450;28;20274;-67
2021/04/03 05:42:53;;;;;;;0.20;0.20;;;;;;;;;;5079208;28;20019;-67
2021/04/03 05:45:20;;;;;;;0.20;0.20;;;;;;;;;;5096662;28;20814;-67
2021/04/03 05:47:45;;;;;;;0.15;0.15;;;;;;;;;;5096982;28;20053;-66
2021/04/03 05:50:11;;;;;;;0.20;0.20;;;;;;;;;;5114547;28;20024;-66
2021/04/03 05:52:36;;;;;;;0.20;0.20;;;;;;;;;;5095189;28;20089;-66
2021/04/03 05:55:01;;;;;;;0.20;0.20;;;;;;;;;;5079805;28;20035;-66
2021/04/03 05:57:27;;;;;;;0.20;0.20;;;;;;;;;;5079096;28;20443;-66
2021/04/03 05:59:52;;;;;;;0.20;0.20;;;;;;;;;;5078666;28;20028;-66
2021/04/03 06:02:17;;;;;;;0.20;0.20;;;;;;;;;;5079855;28;20027;-66
2021/04/03 06:04:42;;;;;;;0.20;0.20;;;;;;;;;;5114562;28;20029;-66
2021/04/03 06:07:07;;;;;;;0.20;0.20;;;;;;;;;;5080028;28;20019;-66
2021/04/03 06:09:33;;;;;;;0.20;0.20;;;;;;;;;;5096812;28;20261;-66
2021/04/03 06:11:58;;;;;;;0.20;0.20;;;;;;;;;;5096349;28;20031;-66
2021/04/03 06:14:23;;;;;;;0.20;0.20;;;;;;;;;;5096864;28;20277;-66
2021/04/03 06:16:51;;;;;;;0.20;0.20;;;;;;;;;;5079828;28;20701;-66
2021/04/03 06:19:26;;;;;;;0.15;0.15;;;;;;;;;;5090013;28;20023;-67
2021/04/03 06:21:55;;;;;;;0.20;0.20;;;;;;;;;;5096665;28;20103;-67
2021/04/03 06:24:25;;;;;;;0.20;0.20;;;;;;;;;;5079755;28;20028;-67
2021/04/03 06:26:51;;;;;;;0.17;0.17;;;;;;;;;;5078424;28;20533;-67
2021/04/03 06:29:26;;;;;;;0.20;0.20;;;;;;;;;;5096543;28;20016;-67
2021/04/03 06:31:55;;;;;;;0.20;0.20;;;;;;;;;;5092894;28;20051;-67
2021/04/03 06:34:37;;;;;;;0.20;0.20;;;;;;;;;;5096686;28;20468;-67
2021/04/03 06:37:02;;;;;;;0.20;0.20;;;;;;;;;;5078413;28;20376;-67
2021/04/03 06:39:28;;;;;;;0.20;0.20;;;;;;;;;;5096973;28;20024;-67
2021/04/03 06:41:53;;;;;;;0.20;0.20;;;;;;;;;;5079587;28;20077;-67
2021/04/03 06:44:21;;;;;;;0.20;0.20;;;;;;;;;;5114217;28;20084;-67
2021/04/03 06:46:47;;;;;;;0.20;0.20;;;;;;;;;;5094882;28;20023;-67
2021/04/03 06:49:12;;;;;;;0.20;0.20;;;;;;;;;;5078059;28;20491;-66
2021/04/03 06:51:37;;;;;;;0.20;0.20;;;;;;;;;;5095774;28;20045;-67
2021/04/03 06:54:03;;;;;;;0.20;0.20;;;;;;;;;;5096020;28;20024;-67
2021/04/03 06:56:30;;;;;;;0.20;0.20;;;;;;;;;;5096257;28;20011;-67
2021/04/03 06:59:06;;;;;;;0.10;0.10;;;;;;;;;;5106160;27;20020;-67
2021/04/03 07:01:31;;;;;;;;;;;;;;;;;;5078623;28;20110;-68
2021/04/03 07:03:57;;;;;;;0.20;0.20;;;;;;;;;;5093775;28;20038;-66
2021/04/03 07:06:22;;;;;;;0.20;0.20;;;;;;;;;;5095870;28;20041;-67
2021/04/03 07:08:48;;;;;;;0.20;0.20;;;;;;;;;;5094121;28;20026;-67
2021/04/03 07:11:13;;;;;;;0.20;0.20;;;;;;;;;;5095353;28;20053;-67
2021/04/03 07:13:39;;;;;;;0.10;0.10;;;;;;;;;;5095193;28;20372;-67
2021/04/03 07:16:04;;;;;;;0.20;0.20;;;;;;;;;;5095190;28;20270;-66
2021/04/03 07:18:30;;;;;;;0.20;0.20;;;;;;;;;;5078221;28;20261;-66
2021/04/03 07:20:55;;;;;;;0.20;0.20;;;;;;;;;;5094989;28;20387;-67
2021/04/03 07:23:20;;;;;;;0.20;0.20;;;;;;;;;;5077706;28;20022;-66
2021/04/03 07:25:45;;;;;;;0.20;0.20;;;;;;;;;;5095036;28;20289;-67
2021/04/03 07:28:11;;;;;;;0.20;0.20;;;;;;;;;;5094959;28;20031;-67
2021/04/03 07:30:36;;;;;;;0.20;0.20;;;;;;;;;;5084137;28;20829;-67
2021/04/03 07:33:05;;;;;;;0.20;0.20;;;;;;;;;;5093200;28;20028;-67
2021/04/03 07:35:30;;;;;;;0.20;0.20;;;;;;;;;;5075131;28;20034;-68
2021/04/03 07:37:55;;;;;;;0.20;0.20;;;;;;;;;;5085057;28;20024;-68
2021/04/03 07:40:23;;;;;;;0.20;0.20;;;;;;;;;;5070407;28;20266;-67
2021/04/03 07:42:48;;;;;;;0.20;0.20;;;;;;;;;;5093775;28;20261;-67
2021/04/03 07:45:42;;;;;;;0.10;0.10;;;;;;;;;;5057788;28;20111;-67
2021/04/03 07:48:14;;;;;;;0.20;0.20;;;;;;;;;;5092516;28;20103;-67
2021/04/03 07:50:39;;;;;;;0.20;0.20;;;;;;;;;;5073814;28;20019;-67
2021/04/03 07:53:04;;;;;;;0.20;0.20;;;;;;;;;;5073399;28;20396;-67
2021/04/03 07:55:30;;;;;;;0.20;0.20;;;;;;;;;;5072275;28;20278;-67
2021/04/03 07:58:15;;;;;;;0.20;0.20;;;;;;;;;;5074672;28;20311;-67
2021/04/03 08:00:40;;;;;;;0.13;0.13;;;;;;;;;;5093473;28;20090;-67
2021/04/03 08:03:06;;;;;;;0.20;0.20;;;;;;;;;;5058132;28;20373;-67
2021/04/03 08:05:31;;;;;;;0.20;0.20;;;;;;;;;;5074754;28;20293;-68
2021/04/03 08:07:56;;;;;;;0.20;0.20;;;;;;;;;;5092992;28;20331;-67
2021/04/03 08:10:23;;;;;;;0.20;0.20;;;;;;;;;;5075143;28;20065;-67
2021/04/03 08:12:48;;;;;;;0.20;0.20;;;;;;;;;;5075203;28;20364;-67
2021/04/03 08:15:16;;;;;;;0.20;0.20;;;;;;;;;;5058495;28;20043;-67
2021/04/03 08:17:42;;;;;;;0.20;0.20;;;;;;;;;;5056805;28;20270;-67
2021/04/03 08:20:07;;;;;;;0.20;0.20;;;;;;;;;;5058259;28;20027;-67
2021/04/03 08:22:32;;;;;;;0.20;0.20;;;;;;;;;;5075011;28;20285;-67
2021/04/03 08:24:58;;;;;;;0.20;0.20;;;;;;;;;;5074778;28;20054;-67
2021/04/03 08:27:30;;;;;;;0.20;0.20;;;;;;;;;;5074901;28;20258;-67
2021/04/03 08:29:56;;;;;;;0.15;0.15;;;;;;;;;;5058171;28;20020;-68
2021/04/03 08:32:22;;;;;;;0.20;0.20;;;;;;;;;;5080650;28;20048;-68
2021/04/03 08:34:47;;;;;;;0.17;0.17;;;;;;;;;;5091538;28;20020;-67
2021/04/03 08:37:14;;;;;;;0.20;0.20;;;;;;;;;;5093460;28;20266;-67
2021/04/03 08:39:39;;;;;;;0.15;0.15;;;;;;;;;;5118388;28;20253;-67
2021/04/03 08:42:04;;;;;;;0.17;0.17;;;;;;;;;;5107205;28;20023;-67
2021/04/03 08:44:30;;;;;;;0.20;0.20;;;;;;;;;;5115251;28;20769;-67
2021/04/03 08:47:02;;;;;;;0.20;0.20;;;;;;;;;;5115444;28;20016;-67
2021/04/03 08:49:34;;;;;;;0.20;0.20;;;;;;;;;;5087120;28;20080;-67
2021/04/03 08:51:59;;;;;;;0.10;0.10;;;;;;;;;;5094739;28;20110;-67
2021/04/03 08:54:25;;;;;;;0.20;0.20;;;;;;;;;;5079767;28;20055;-67
2021/04/03 08:56:50;;;;;;;0.13;0.13;;;;;;;;;;5061216;28;20088;-67
2021/04/03 08:59:16;;;;;;;0.10;0.10;;;;;;;;;;5078413;28;20111;-67
2021/04/03 17:33:39;;;;;;;0.00;0.00;;;;;;;;;;5034428;28;21370;-73
2021/04/03 17:36:04;;;;;;;0.00;0.00;;;;;;;;;;5037594;28;20045;-73
2021/04/03 17:38:30;;;;;;;0.00;0.00;;;;;;;;;;5038015;28;20437;-73
2021/04/03 17:40:55;;;;;;;0.00;0.00;;;;;;;;;;5038106;28;20104;-73
2021/04/03 17:43:20;;;;;;;0.10;0.10;;;;;;;;;;5021156;28;20029;-75
2021/04/03 17:45:46;;;;;;;0.00;0.00;;;;;;;;;;5037655;28;20029;-74
2021/04/03 17:48:11;;;;;;;0.07;0.07;;;;;;;;;;5039086;28;20112;-75
2021/04/03 17:50:36;;;;;;;0.00;0.00;;;;;;;;;;5018284;28;20314;-75
2021/04/03 17:53:01;;;;;;;0.00;0.00;;;;;;;;;;5018146;28;20034;-75
2021/04/03 17:55:27;;;;;;;0.00;0.00;;;;;;;;;;5034546;28;20038;-76
2021/04/03 17:57:52;;;;;;;0.00;0.00;;;;;;;;;;5033967;28;20041;-76
2021/04/03 18:00:17;;;;;;;0.00;0.00;;;;;;;;;;5034841;28;20641;-74
2021/04/03 18:02:43;;;;;;;0.00;0.00;;;;;;;;;;5038665;28;20271;-75
2021/04/03 18:05:08;;;;;;;0.00;0.00;;;;;;;;;;5039289;28;20029;-75
2021/04/03 18:07:33;;;;;;;0.00;0.00;;;;;;;;;;5024420;28;20021;-75
2021/04/03 18:09:58;;;;;;;0.00;0.00;;;;;;;;;;5059003;28;20041;-76
2021/04/03 18:12:24;;;;;;;0.00;0.00;;;;;;;;;;5045734;28;20271;-78
2021/04/03 18:14:49;;;;;;;0.10;0.10;;;;;;;;;;5036649;28;20276;-78
2021/04/03 18:17:14;;;;;;;0.10;0.10;;;;;;;;;;5071450;28;20263;-78
2021/04/03 18:19:44;;;;;;;0.00;0.00;;;;;;;;;;5049032;28;20310;-75
2021/04/03 18:22:09;;;;;;;0.00;0.00;;;;;;;;;;5019319;28;20633;-76
2021/04/03 18:24:35;;;;;;;0.10;0.10;;;;;;;;;;5035561;28;20033;-75
2021/04/03 18:27:00;;;;;;;0.00;0.00;;;;;;;;;;5037797;28;20033;-74
2021/04/03 18:29:25;;;;;;;0.00;0.00;;;;;;;;;;5036168;28;20481;-74
2021/04/03 18:31:51;;;;;;;0.10;0.10;;;;;;;;;;5020561;28;20072;-75
2021/04/03 18:34:16;;;;;;;0.10;0.10;;;;;;;;;;5054871;28;20259;-75
2021/04/03 18:36:41;;;;;;;0.00;0.00;;;;;;;;;;5037538;28;20264;-75
2021/04/03 18:39:06;;;;;;;0.10;0.10;;;;;;;;;;5022617;28;20624;-75
2021/04/03 18:41:31;;;;;;;0.10;0.10;;;;;;;;;;5022311;28;20079;-76
2021/04/03 18:43:57;;;;;;;0.10;0.10;;;;;;;;;;5038196;28;20609;-75
2021/04/03 18:46:22;;;;;;;0.08;0.08;;;;;;;;;;5036568;28;20033;-76
2021/04/03 18:48:47;;;;;;;0.10;0.10;;;;;;;;;;5053902;28;20029;-76
2021/04/03 18:51:12;;;;;;;0.00;0.00;;;;;;;;;;5035023;28;21589;-76
2021/04/03 18:53:38;;;;;;;0.10;0.10;;;;;;;;;;5036442;28;20020;-76
2021/04/03 18:56:03;;;;;;;0.10;0.10;;;;;;;;;;5037235;28;20039;-76
2021/04/03 18:58:28;;;;;;;0.10;0.10;;;;;;;;;;5016580;28;20068;-76
2021/04/03 19:00:54;;;;;;;0.10;0.10;;;;;;;;;;5017056;28;20087;-74
2021/04/03 19:03:19;;;;;;;0.00;0.00;;;;;;;;;;5019762;28;20084;-75
2021/04/03 19:05:44;;;;;;;0.10;0.10;;;;;;;;;;5019516;28;20116;-75
2021/04/03 19:08:10;;;;;;;0.08;0.08;;;;;;;;;;5035774;28;20029;-76
2021/04/03 19:10:35;;;;;;;0.10;0.10;;;;;;;;;;5044008;28;20033;-77
2021/04/03 19:13:02;;;;;;;0.10;0.10;;;;;;;;;;5010848;28;20021;-77
2021/04/03 19:15:28;;;;;;;0.10;0.10;;;;;;;;;;5020937;28;20362;-74
2021/04/03 19:17:55;;;;;;;0.10;0.10;;;;;;;;;;5030324;28;20033;-74
2021/04/03 19:20:21;;;;;;;0.10;0.10;;;;;;;;;;5019046;28;20021;-75
2021/04/03 19:22:46;;;;;;;0.10;0.10;;;;;;;;;;5056497;28;20039;-77
2021/04/03 19:25:11;;;;;;;0.10;0.10;;;;;;;;;;5036598;28;20068;-76
2021/04/03 19:27:36;;;;;;;0.10;0.10;;;;;;;;;;5056958;28;20048;-74
2021/04/03 19:30:02;;;;;;;0.10;0.10;;;;;;;;;;5019536;28;20140;-75
2021/04/03 19:32:28;;;;;;;0.10;0.10;;;;;;;;;;5024199;28;20076;-75
2021/04/03 19:34:53;;;;;;;0.10;0.10;;;;;;;;;;4995260;28;20106;-74
2021/04/03 19:37:18;;;;;;;0.10;0.10;;;;;;;;;;5013579;28;20391;-75
2021/04/03 19:39:44;;;;;;;0.10;0.10;;;;;;;;;;4995613;28;20036;-74
2021/04/03 19:42:10;;;;;;;0.10;0.10;;;;;;;;;;4997611;28;20030;-74
2021/04/03 19:44:35;;;;;;;0.10;0.10;;;;;;;;;;5014080;28;20486;-73
2021/04/03 19:47:01;;;;;;;0.10;0.10;;;;;;;;;;5028424;28;20383;-72
2021/04/03 19:49:26;;;;;;;0.10;0.10;;;;;;;;;;4998232;28;20029;-73
2021/04/03 19:51:55;;;;;;;0.10;0.10;;;;;;;;;;4997765;28;20041;-72
2021/04/03 19:54:20;;;;;;;0.10;0.10;;;;;;;;;;4998276;28;20022;-73
2021/04/03 19:56:49;;;;;;;0.10;0.10;;;;;;;;;;4997792;28;20029;-73
2021/04/03 19:59:14;;;;;;;0.10;0.10;;;;;;;;;;4998564;28;20481;-74
2021/04/03 20:01:40;;;;;;;0.10;0.10;;;;;;;;;;5015093;28;20030;-72
2021/04/03 20:04:05;;;;;;;0.08;0.08;;;;;;;;;;5016580;28;20040;-72
2021/04/03 20:06:31;;;;;;;0.10;0.10;;;;;;;;;;5016720;28;20040;-73
2021/04/03 20:08:56;;;;;;;0.10;0.10;;;;;;;;;;5018383;28;20058;-73
2021/04/03 20:11:21;;;;;;;0.10;0.10;;;;;;;;;;5013716;28;20025;-73
2021/04/03 20:13:47;;;;;;;0.10;0.10;;;;;;;;;;5031116;28;20295;-73
2021/04/03 20:16:12;;;;;;;0.10;0.10;;;;;;;;;;5031053;28;20236;-73
2021/04/03 20:18:38;;;;;;;0.10;0.10;;;;;;;;;;5010256;28;20030;-73
2021/04/03 20:21:03;;;;;;;0.10;0.10;;;;;;;;;;5012790;28;20457;-73
2021/04/03 20:23:29;;;;;;;0.10;0.10;;;;;;;;;;4994398;28;20033;-73
2021/04/03 20:25:54;;;;;;;0.10;0.10;;;;;;;;;;5013307;28;20068;-72
2021/04/03 20:28:20;;;;;;;0.10;0.10;;;;;;;;;;5028853;28;20036;-74
2021/04/03 20:30:46;;;;;;;0.10;0.10;;;;;;;;;;4999124;28;20033;-74
2021/04/03 20:33:11;;;;;;;0.10;0.10;;;;;;;;;;5010728;28;20132;-75
2021/04/03 20:35:36;;;;;;;0.10;0.10;;;;;;;;;;5014773;28;20105;-75
2021/04/03 20:38:02;;;;;;;0.10;0.10;;;;;;;;;;5051138;28;20048;-75
2021/04/03 20:40:28;;;;;;;0.10;0.10;;;;;;;;;;5049533;28;20123;-75
2021/04/03 20:42:54;;;;;;;0.10;0.10;;;;;;;;;;5034132;28;20025;-75
2021/04/03 20:45:20;;;;;;;0.10;0.10;;;;;;;;;;5016101;28;20029;-76
2021/04/03 20:47:45;;;;;;;0.10;0.10;;;;;;;;;;5034539;28;20603;-76
2021/04/03 20:50:16;;;;;;;0.10;0.10;;;;;;;;;;5017512;28;20036;-75
2021/04/03 20:52:41;;;;;;;0.10;0.10;;;;;;;;;;5037070;28;20028;-76
2021/04/03 20:55:07;;;;;;;0.10;0.10;;;;;;;;;;5037128;28;20389;-76
2021/04/03 20:57:32;;;;;;;0.10;0.10;;;;;;;;;;5037709;28;20270;-76
2021/04/03 20:59:57;;;;;;;0.10;0.10;;;;;;;;;;5038759;28;20453;-76
2021/04/03 21:02:22;;;;;;;0.10;0.10;;;;;;;;;;5021061;28;20275;-73
2021/04/03 21:04:48;;;;;;;0.10;0.10;;;;;;;;;;5023037;28;20033;-74
2021/04/03 21:07:13;;;;;;;0.10;0.10;;;;;;;;;;5022140;28;20621;-72
2021/04/03 21:09:39;;;;;;;0.10;0.10;;;;;;;;;;5037374;28;20036;-72
2021/04/03 21:12:05;;;;;;;0.10;0.10;;;;;;;;;;5037306;28;20029;-73
2021/04/03 21:14:30;;;;;;;0.10;0.10;;;;;;;;;;5018676;28;20393;-73
2021/04/03 21:16:55;;;;;;;0.10;0.10;;;;;;;;;;5057427;28;20535;-73
2021/04/03 21:19:24;;;;;;;0.10;0.10;;;;;;;;;;5022730;28;20274;-74
2021/04/03 21:21:49;;;;;;;0.10;0.10;;;;;;;;;;5018991;28;20039;-73
2021/04/03 21:24:15;;;;;;;0.10;0.10;;;;;;;;;;5020510;28;20028;-74
2021/04/03 21:26:40;;;;;;;0.20;0.20;;;;;;;;;;5020304;28;20105;-74
2021/04/03 21:29:08;;;;;;;0.10;0.10;;;;;;;;;;5053657;28;20021;-74
2021/04/03 21:31:37;;;;;;;0.10;0.10;;;;;;;;;;5011522;28;20025;-72
2021/04/03 21:34:05;;;;;;;0.10;0.10;;;;;;;;;;5029532;28;20021;-74
2021/04/03 21:36:31;;;;;;;0.10;0.10;;;;;;;;;;5054247;28;20040;-75
2021/04/03 21:38:58;;;;;;;0.20;0.20;;;;;;;;;;5031357;28;20025;-73
2021/04/03 21:41:26;;;;;;;0.10;0.10;;;;;;;;;;5011717;28;20029;-73
2021/04/03 21:43:51;;;;;;;0.10;0.10;;;;;;;;;;5035840;28;20029;-73
2021/04/03 21:46:17;;;;;;;0.10;0.10;;;;;;;;;;5052584;28;20029;-73
2021/04/03 21:48:42;;;;;;;0.10;0.10;;;;;;;;;;5035858;28;20044;-75
2021/04/03 21:51:07;;;;;;;0.15;0.15;;;;;;;;;;5020153;28;20029;-74
2021/04/03 21:53:32;;;;;;;0.20;0.20;;;;;;;;;;5035408;28;20396;-75
2021/04/03 21:55:57;;;;;;;0.10;0.10;;;;;;;;;;5051759;28;20346;-75
2021/04/03 21:58:23;;;;;;;0.20;0.20;;;;;;;;;;5052705;28;20057;-75
2021/04/03 22:00:50;;;;;;;0.10;0.10;;;;;;;;;;5019340;28;21030;-75
2021/04/03 22:03:18;;;;;;;0.10;0.10;;;;;;;;;;5045062;28;20112;-75
2021/04/03 22:05:43;;;;;;;0.20;0.20;;;;;;;;;;5037950;28;20402;-76
2021/04/03 22:08:08;;;;;;;0.20;0.20;;;;;;;;;;5038970;28;20025;-75
2021/04/03 22:10:37;;;;;;;0.17;0.17;;;;;;;;;;5021146;28;20029;-76
2021/04/03 22:13:03;;;;;;;0.10;0.10;;;;;;;;;;5040628;28;20033;-75
2021/04/03 22:15:28;;;;;;;0.20;0.20;;;;;;;;;;5036823;28;20044;-76
2021/04/03 22:17:53;;;;;;;0.20;0.20;;;;;;;;;;5037386;28;20033;-76
2021/04/03 22:20:19;;;;;;;0.20;0.20;;;;;;;;;;5037793;28;20036;-75
2021/04/03 22:22:44;;;;;;;0.20;0.20;;;;;;;;;;5037451;28;20108;-75
2021/04/03 22:25:10;;;;;;;0.20;0.20;;;;;;;;;;5038593;28;20025;-76
2021/04/03 22:27:35;;;;;;;0.20;0.20;;;;;;;;;;5036415;28;20033;-76
2021/04/03 22:30:00;;;;;;;0.20;0.20;;;;;;;;;;5037160;28;20128;-76
2021/04/03 22:32:26;;;;;;;0.20;0.20;;;;;;;;;;5030461;28;20045;-76
2021/04/03 22:34:51;;;;;;;0.20;0.20;;;;;;;;;;5022522;28;20030;-76
2021/04/03 22:37:18;;;;;;;0.20;0.20;;;;;;;;;;5044314;28;20041;-76
2021/04/03 22:39:43;;;;;;;0.20;0.20;;;;;;;;;;5020193;28;20032;-77
2021/04/03 22:42:08;;;;;;;0.20;0.20;;;;;;;;;;4999614;28;20025;-76
2021/04/03 22:44:33;;;;;;;0.20;0.20;;;;;;;;;;5002741;28;20092;-75
2021/04/03 22:46:59;;;;;;;0.20;0.20;;;;;;;;;;5035279;28;20029;-74
2021/04/03 22:49:25;;;;;;;0.20;0.20;;;;;;;;;;5034825;28;20466;-75
2021/04/03 22:51:50;;;;;;;0.20;0.20;;;;;;;;;;5021170;28;20041;-74
2021/04/03 22:54:15;;;;;;;0.20;0.20;;;;;;;;;;5019674;28;20028;-75
2021/04/03 22:56:41;;;;;;;0.20;0.20;;;;;;;;;;5021318;28;20648;-75
2021/04/03 22:59:06;;;;;;;0.20;0.20;;;;;;;;;;4998126;28;20035;-76
2021/04/03 23:01:31;;;;;;;0.20;0.20;;;;;;;;;;5031729;28;20026;-77
2021/04/03 23:03:56;;;;;;;0.20;0.20;;;;;;;;;;5013256;28;20684;-75
2021/04/03 23:06:21;;;;;;;0.20;0.20;;;;;;;;;;5000423;28;20277;-73
2021/04/03 23:08:46;;;;;;;0.20;0.20;;;;;;;;;;4998858;28;20268;-75